VIV236 MMMX-MMUN
Flight info
| Callsign | VIV236 |
|---|---|
| Flight time | 2h 2m |
| Altitude | 37000 |
| Route | UKUNO3A UKUNO UT108 VER UJ24 GOTAS UT65 PAULE PAULE3G |
| Aircraft | A320/M-SDE3FGHIRWY/LB1 |
Departure
| Time | 2026-05-06 17:56 |
|---|---|
| Airport | Mexico City Benito Juárez International Airport (MMMX) |
Arrival
| Time | 2026-05-06 19:58 |
|---|---|
| Airport | Cancún International Airport (MMUN) |
| Time | Latitude | Longitude | Altitude | Speed | Heading |
|---|---|---|---|---|---|
| 2026-05-06 17:23 | 19.43317 | -99.08471 | 7303 ft | 0 kts | 329° |
| 2026-05-06 17:47 | 19.43305 | -99.08463 | 7303 ft | 4 kts | 324° |
| 2026-05-06 17:47 | 19.43284 | -99.08444 | 7303 ft | 4 kts | 310° |
| 2026-05-06 17:47 | 19.43269 | -99.08421 | 7303 ft | 4 kts | 290° |
| 2026-05-06 17:47 | 19.43264 | -99.08396 | 7303 ft | 4 kts | 265° |
| 2026-05-06 17:48 | 19.43270 | -99.08372 | 7303 ft | 1 kts | 239° |
| 2026-05-06 17:48 | 19.43271 | -99.08371 | 7303 ft | 0 kts | 239° |
| 2026-05-06 17:51 | 19.43267 | -99.08378 | 7303 ft | 3 kts | 239° |
| 2026-05-06 17:51 | 19.43251 | -99.08406 | 7303 ft | 6 kts | 239° |
| 2026-05-06 17:51 | 19.43223 | -99.08456 | 7303 ft | 9 kts | 239° |
| 2026-05-06 17:51 | 19.43184 | -99.08525 | 7303 ft | 13 kts | 240° |
| 2026-05-06 17:52 | 19.43133 | -99.08614 | 7303 ft | 16 kts | 239° |
| 2026-05-06 17:52 | 19.43074 | -99.08723 | 7303 ft | 18 kts | 240° |
| 2026-05-06 17:52 | 19.43013 | -99.08831 | 7303 ft | 17 kts | 239° |
| 2026-05-06 17:52 | 19.42950 | -99.08943 | 7303 ft | 18 kts | 239° |
| 2026-05-06 17:53 | 19.42879 | -99.09033 | 7303 ft | 15 kts | 212° |
| 2026-05-06 17:53 | 19.42870 | -99.09039 | 7303 ft | 0 kts | 208° |
| 2026-05-06 17:54 | 19.42862 | -99.09043 | 7303 ft | 5 kts | 208° |
| 2026-05-06 17:54 | 19.42799 | -99.09078 | 7303 ft | 14 kts | 197° |
| 2026-05-06 17:54 | 19.42780 | -99.09011 | 7303 ft | 15 kts | 63° |
| 2026-05-06 17:55 | 19.42864 | -99.08868 | 7303 ft | 44 kts | 58° |
| 2026-05-06 17:55 | 19.43137 | -99.08375 | 7301 ft | 109 kts | 59° |
| 2026-05-06 17:55 | 19.43614 | -99.07521 | 7304 ft | 158 kts | 59° |
| 2026-05-06 17:55 | 19.44247 | -99.06402 | 7435 ft | 188 kts | 59° |
| 2026-05-06 17:56 | 19.44914 | -99.05229 | 8167 ft | 185 kts | 59° |
| 2026-05-06 17:56 | 19.45579 | -99.04047 | 8773 ft | 190 kts | 59° |
| 2026-05-06 17:56 | 19.46280 | -99.02795 | 8927 ft | 204 kts | 59° |
| 2026-05-06 17:56 | 19.47032 | -99.01455 | 9055 ft | 220 kts | 59° |
| 2026-05-06 17:57 | 19.47843 | -99.00012 | 9185 ft | 236 kts | 59° |
| 2026-05-06 17:57 | 19.48706 | -98.98477 | 9305 ft | 251 kts | 59° |
| 2026-05-06 17:57 | 19.49637 | -98.96818 | 9434 ft | 273 kts | 59° |
| 2026-05-06 17:57 | 19.50643 | -98.95018 | 9611 ft | 292 kts | 59° |
| 2026-05-06 17:58 | 19.51696 | -98.93137 | 10095 ft | 299 kts | 59° |
| 2026-05-06 17:58 | 19.52764 | -98.91230 | 10668 ft | 303 kts | 60° |
| 2026-05-06 17:58 | 19.53585 | -98.89172 | 11290 ft | 305 kts | 74° |
| 2026-05-06 17:58 | 19.54170 | -98.87000 | 11942 ft | 307 kts | 75° |
| 2026-05-06 17:59 | 19.54742 | -98.84817 | 12610 ft | 308 kts | 75° |
| 2026-05-06 17:59 | 19.55312 | -98.82620 | 13270 ft | 310 kts | 75° |
| 2026-05-06 17:59 | 19.55884 | -98.80413 | 13889 ft | 311 kts | 75° |
| 2026-05-06 17:59 | 19.56462 | -98.78190 | 14489 ft | 314 kts | 75° |
| 2026-05-06 18:00 | 19.57038 | -98.75984 | 15086 ft | 316 kts | 75° |
| 2026-05-06 18:00 | 19.57484 | -98.73698 | 15658 ft | 317 kts | 86° |
| 2026-05-06 18:00 | 19.57436 | -98.71345 | 16019 ft | 327 kts | 99° |
| 2026-05-06 18:00 | 19.56972 | -98.68925 | 16154 ft | 342 kts | 103° |
| 2026-05-06 18:01 | 19.56456 | -98.66401 | 16282 ft | 358 kts | 103° |
| 2026-05-06 18:01 | 19.55922 | -98.63772 | 16410 ft | 372 kts | 103° |
| 2026-05-06 18:01 | 19.55371 | -98.61040 | 16556 ft | 385 kts | 103° |
| 2026-05-06 18:01 | 19.54808 | -98.58233 | 16872 ft | 391 kts | 103° |
| 2026-05-06 18:02 | 19.54245 | -98.55403 | 17334 ft | 394 kts | 103° |
| 2026-05-06 18:02 | 19.53681 | -98.52550 | 17830 ft | 396 kts | 103° |
| 2026-05-06 18:02 | 19.53113 | -98.49687 | 18355 ft | 398 kts | 103° |
| 2026-05-06 18:02 | 19.52537 | -98.46810 | 18844 ft | 400 kts | 103° |
| 2026-05-06 18:03 | 19.51954 | -98.43915 | 19276 ft | 403 kts | 103° |
| 2026-05-06 18:03 | 19.51369 | -98.41017 | 19698 ft | 406 kts | 103° |
| 2026-05-06 18:03 | 19.50783 | -98.38116 | 20116 ft | 409 kts | 103° |
| 2026-05-06 18:03 | 19.50188 | -98.35160 | 20493 ft | 412 kts | 103° |
| 2026-05-06 18:04 | 19.49588 | -98.32178 | 20876 ft | 416 kts | 103° |
| 2026-05-06 18:04 | 19.48984 | -98.29170 | 21249 ft | 419 kts | 103° |
| 2026-05-06 18:04 | 19.48375 | -98.26139 | 21625 ft | 422 kts | 103° |
| 2026-05-06 18:04 | 19.47760 | -98.23083 | 21980 ft | 425 kts | 103° |
| 2026-05-06 18:05 | 19.47142 | -98.20011 | 22327 ft | 428 kts | 104° |
| 2026-05-06 18:05 | 19.46517 | -98.16917 | 22673 ft | 431 kts | 104° |
| 2026-05-06 18:05 | 19.45888 | -98.13807 | 22983 ft | 433 kts | 104° |
| 2026-05-06 18:05 | 19.45251 | -98.10675 | 23292 ft | 436 kts | 104° |
| 2026-05-06 18:06 | 19.44610 | -98.07526 | 23604 ft | 438 kts | 104° |
| 2026-05-06 18:06 | 19.43966 | -98.04356 | 23896 ft | 441 kts | 104° |
| 2026-05-06 18:06 | 19.43358 | -98.01154 | 24180 ft | 445 kts | 100° |
| 2026-05-06 18:06 | 19.43028 | -97.97900 | 24447 ft | 448 kts | 98° |
| 2026-05-06 18:07 | 19.42718 | -97.94604 | 24736 ft | 450 kts | 97° |
| 2026-05-06 18:07 | 19.42404 | -97.91291 | 25017 ft | 453 kts | 97° |
| 2026-05-06 18:07 | 19.42086 | -97.87961 | 25287 ft | 456 kts | 97° |
| 2026-05-06 18:07 | 19.41763 | -97.84611 | 25551 ft | 458 kts | 97° |
| 2026-05-06 18:08 | 19.41438 | -97.81289 | 25804 ft | 460 kts | 98° |
| 2026-05-06 18:08 | 19.41108 | -97.77911 | 26057 ft | 462 kts | 98° |
| 2026-05-06 18:08 | 19.40776 | -97.74518 | 26304 ft | 465 kts | 97° |
| 2026-05-06 18:08 | 19.40443 | -97.71102 | 26553 ft | 467 kts | 97° |
| 2026-05-06 18:09 | 19.40107 | -97.67675 | 26785 ft | 469 kts | 97° |
| 2026-05-06 18:09 | 19.39771 | -97.64239 | 27127 ft | 469 kts | 97° |
| 2026-05-06 18:09 | 19.39436 | -97.60803 | 27484 ft | 468 kts | 97° |
| 2026-05-06 18:09 | 19.39100 | -97.57369 | 27840 ft | 468 kts | 97° |
| 2026-05-06 18:10 | 19.38763 | -97.53936 | 28193 ft | 468 kts | 97° |
| 2026-05-06 18:10 | 19.38426 | -97.50505 | 28544 ft | 468 kts | 97° |
| 2026-05-06 18:10 | 19.38088 | -97.47078 | 28896 ft | 468 kts | 97° |
| 2026-05-06 18:10 | 19.37749 | -97.43643 | 29256 ft | 468 kts | 97° |
| 2026-05-06 18:11 | 19.37413 | -97.40258 | 29608 ft | 468 kts | 97° |
| 2026-05-06 18:11 | 19.37069 | -97.36834 | 29957 ft | 467 kts | 97° |
| 2026-05-06 18:11 | 19.36724 | -97.33406 | 30314 ft | 467 kts | 97° |
| 2026-05-06 18:11 | 19.36380 | -97.29976 | 30680 ft | 467 kts | 97° |
| 2026-05-06 18:12 | 19.36040 | -97.26584 | 31062 ft | 466 kts | 97° |
| 2026-05-06 18:12 | 19.35700 | -97.23170 | 31441 ft | 465 kts | 97° |
| 2026-05-06 18:12 | 19.35360 | -97.19763 | 31827 ft | 464 kts | 97° |
| 2026-05-06 18:12 | 19.35021 | -97.16360 | 32222 ft | 464 kts | 97° |
| 2026-05-06 18:13 | 19.34683 | -97.12977 | 32613 ft | 463 kts | 97° |
| 2026-05-06 18:13 | 19.34341 | -97.09577 | 33017 ft | 462 kts | 97° |
| 2026-05-06 18:13 | 19.34000 | -97.06203 | 33423 ft | 461 kts | 97° |
| 2026-05-06 18:13 | 19.33463 | -97.02874 | 33808 ft | 459 kts | 104° |
| 2026-05-06 18:14 | 19.32723 | -96.99602 | 34162 ft | 458 kts | 104° |
| 2026-05-06 18:14 | 19.31993 | -96.96370 | 34496 ft | 457 kts | 104° |
| 2026-05-06 18:14 | 19.31251 | -96.93100 | 34813 ft | 457 kts | 104° |
| 2026-05-06 18:14 | 19.30511 | -96.89824 | 35149 ft | 456 kts | 104° |
| 2026-05-06 18:15 | 19.29775 | -96.86564 | 35457 ft | 456 kts | 104° |
| 2026-05-06 18:15 | 19.29039 | -96.83304 | 35757 ft | 455 kts | 104° |
| 2026-05-06 18:15 | 19.28300 | -96.80047 | 36060 ft | 455 kts | 104° |
| 2026-05-06 18:15 | 19.27560 | -96.76792 | 36329 ft | 454 kts | 104° |
| 2026-05-06 18:16 | 19.26822 | -96.73540 | 36580 ft | 454 kts | 104° |
| 2026-05-06 18:16 | 19.26086 | -96.70294 | 36814 ft | 454 kts | 104° |
| 2026-05-06 18:16 | 19.24600 | -96.63773 | 36892 ft | 460 kts | 104° |
| 2026-05-06 18:17 | 19.23101 | -96.57196 | 36890 ft | 458 kts | 104° |
| 2026-05-06 18:17 | 19.21611 | -96.50679 | 36878 ft | 458 kts | 104° |
| 2026-05-06 18:18 | 19.20108 | -96.44128 | 36867 ft | 459 kts | 104° |
| 2026-05-06 18:18 | 19.18608 | -96.37571 | 36862 ft | 459 kts | 104° |
| 2026-05-06 18:19 | 19.17106 | -96.31007 | 36861 ft | 459 kts | 104° |
| 2026-05-06 18:19 | 19.15601 | -96.24453 | 36858 ft | 459 kts | 104° |
| 2026-05-06 18:20 | 19.14675 | -96.17796 | 36856 ft | 460 kts | 90° |
| 2026-05-06 18:20 | 19.15404 | -96.11074 | 36852 ft | 461 kts | 82° |
| 2026-05-06 18:21 | 19.16331 | -96.04361 | 36852 ft | 461 kts | 82° |
| 2026-05-06 18:21 | 19.17236 | -95.97639 | 36852 ft | 462 kts | 82° |
| 2026-05-06 18:22 | 19.18141 | -95.90917 | 36850 ft | 461 kts | 82° |
| 2026-05-06 18:22 | 19.19039 | -95.84232 | 36848 ft | 462 kts | 82° |
| 2026-05-06 18:23 | 19.19876 | -95.77979 | 36848 ft | 461 kts | 82° |
| 2026-05-06 18:23 | 19.20789 | -95.71254 | 36846 ft | 461 kts | 82° |
| 2026-05-06 18:24 | 19.21695 | -95.64533 | 36846 ft | 461 kts | 82° |
| 2026-05-06 18:24 | 19.22597 | -95.57811 | 36845 ft | 461 kts | 82° |
| 2026-05-06 18:25 | 19.23492 | -95.51081 | 36846 ft | 462 kts | 82° |
| 2026-05-06 18:25 | 19.24386 | -95.44356 | 36852 ft | 462 kts | 82° |
| 2026-05-06 18:26 | 19.25282 | -95.37626 | 36852 ft | 462 kts | 82° |
| 2026-05-06 18:26 | 19.26179 | -95.30891 | 36858 ft | 462 kts | 82° |
| 2026-05-06 18:27 | 19.27068 | -95.24153 | 36859 ft | 462 kts | 83° |
| 2026-05-06 18:27 | 19.27947 | -95.17453 | 36861 ft | 462 kts | 83° |
| 2026-05-06 18:28 | 19.28829 | -95.10712 | 36861 ft | 462 kts | 83° |
| 2026-05-06 18:28 | 19.29430 | -95.03955 | 36860 ft | 460 kts | 92° |
| 2026-05-06 18:29 | 19.29231 | -94.97180 | 36866 ft | 461 kts | 92° |
| 2026-05-06 18:29 | 19.29046 | -94.90404 | 36867 ft | 461 kts | 92° |
| 2026-05-06 18:30 | 19.28873 | -94.83621 | 36869 ft | 461 kts | 92° |
| 2026-05-06 18:30 | 19.28693 | -94.76833 | 36869 ft | 461 kts | 92° |
| 2026-05-06 18:31 | 19.28497 | -94.70060 | 36866 ft | 460 kts | 92° |
| 2026-05-06 18:31 | 19.28299 | -94.63281 | 36868 ft | 461 kts | 92° |
| 2026-05-06 18:32 | 19.28100 | -94.56503 | 36866 ft | 461 kts | 92° |
| 2026-05-06 18:32 | 19.27901 | -94.49714 | 36873 ft | 462 kts | 92° |
| 2026-05-06 18:33 | 19.27706 | -94.42919 | 36881 ft | 462 kts | 92° |
| 2026-05-06 18:33 | 19.27500 | -94.36173 | 36884 ft | 461 kts | 92° |
| 2026-05-06 18:34 | 19.27288 | -94.29384 | 36884 ft | 461 kts | 92° |
| 2026-05-06 18:34 | 19.27078 | -94.22597 | 36885 ft | 461 kts | 92° |
| 2026-05-06 18:35 | 19.26873 | -94.15806 | 36888 ft | 461 kts | 92° |
| 2026-05-06 18:35 | 19.26668 | -94.09042 | 36890 ft | 461 kts | 92° |
| 2026-05-06 18:36 | 19.26450 | -94.02263 | 36890 ft | 461 kts | 93° |
| 2026-05-06 18:36 | 19.26224 | -93.95481 | 36890 ft | 461 kts | 93° |
| 2026-05-06 18:37 | 19.26042 | -93.89852 | 36891 ft | 461 kts | 93° |
| 2026-05-06 18:37 | 19.25784 | -93.81928 | 36891 ft | 461 kts | 93° |
| 2026-05-06 18:38 | 19.25550 | -93.75151 | 36890 ft | 460 kts | 93° |
| 2026-05-06 18:38 | 19.25314 | -93.68382 | 36889 ft | 460 kts | 93° |
| 2026-05-06 18:39 | 19.25085 | -93.61611 | 36890 ft | 460 kts | 93° |
| 2026-05-06 18:40 | 19.24731 | -93.51459 | 36889 ft | 460 kts | 93° |
| 2026-05-06 18:40 | 19.24498 | -93.44734 | 36889 ft | 460 kts | 93° |
| 2026-05-06 18:41 | 19.24262 | -93.37964 | 36892 ft | 460 kts | 93° |
| 2026-05-06 18:41 | 19.24027 | -93.31198 | 36890 ft | 460 kts | 93° |
| 2026-05-06 18:42 | 19.23785 | -93.24433 | 36902 ft | 460 kts | 93° |
| 2026-05-06 18:42 | 19.23576 | -93.18807 | 36901 ft | 460 kts | 93° |
| 2026-05-06 18:43 | 19.23328 | -93.12045 | 36898 ft | 460 kts | 93° |
| 2026-05-06 18:43 | 19.23076 | -93.05283 | 36900 ft | 460 kts | 93° |
| 2026-05-06 18:44 | 19.22774 | -92.97421 | 36900 ft | 460 kts | 93° |
| 2026-05-06 18:44 | 19.22559 | -92.91754 | 36901 ft | 460 kts | 93° |
| 2026-05-06 18:45 | 19.22300 | -92.84993 | 36908 ft | 459 kts | 93° |
| 2026-05-06 18:45 | 19.22042 | -92.78255 | 36901 ft | 459 kts | 93° |
| 2026-05-06 18:46 | 19.21781 | -92.71551 | 36917 ft | 459 kts | 93° |
| 2026-05-06 18:46 | 19.21658 | -92.64787 | 36916 ft | 460 kts | 90° |
| 2026-05-06 18:47 | 19.21870 | -92.58027 | 36910 ft | 460 kts | 89° |
| 2026-05-06 18:47 | 19.22134 | -92.51265 | 36914 ft | 460 kts | 89° |
| 2026-05-06 18:48 | 19.22320 | -92.44495 | 36929 ft | 460 kts | 90° |
| 2026-05-06 18:48 | 19.22454 | -92.37729 | 36928 ft | 459 kts | 90° |
| 2026-05-06 18:49 | 19.22591 | -92.30963 | 36916 ft | 460 kts | 90° |
| 2026-05-06 18:49 | 19.22738 | -92.24249 | 36920 ft | 460 kts | 90° |
| 2026-05-06 18:50 | 19.22890 | -92.17487 | 36915 ft | 460 kts | 90° |
| 2026-05-06 18:50 | 19.23038 | -92.10723 | 36928 ft | 460 kts | 90° |
| 2026-05-06 18:51 | 19.23177 | -92.03963 | 36927 ft | 460 kts | 90° |
| 2026-05-06 18:51 | 19.23319 | -91.97191 | 36929 ft | 460 kts | 90° |
| 2026-05-06 18:52 | 19.23458 | -91.90413 | 36937 ft | 460 kts | 90° |
| 2026-05-06 18:52 | 19.23589 | -91.83645 | 36940 ft | 460 kts | 90° |
| 2026-05-06 18:53 | 19.23720 | -91.76864 | 36944 ft | 460 kts | 90° |
| 2026-05-06 18:53 | 19.23853 | -91.70093 | 36943 ft | 460 kts | 90° |
| 2026-05-06 18:54 | 19.23978 | -91.63367 | 36941 ft | 460 kts | 90° |
| 2026-05-06 18:54 | 19.24105 | -91.56554 | 36939 ft | 460 kts | 90° |
| 2026-05-06 18:55 | 19.24231 | -91.49833 | 36941 ft | 460 kts | 90° |
| 2026-05-06 18:55 | 19.24349 | -91.43058 | 36943 ft | 460 kts | 90° |
| 2026-05-06 18:56 | 19.24463 | -91.36318 | 36942 ft | 459 kts | 90° |
| 2026-05-06 18:56 | 19.24582 | -91.29562 | 36940 ft | 459 kts | 90° |
| 2026-05-06 18:57 | 19.24695 | -91.22801 | 36941 ft | 459 kts | 90° |
| 2026-05-06 18:57 | 19.24807 | -91.16038 | 36945 ft | 459 kts | 90° |
| 2026-05-06 18:58 | 19.24909 | -91.09326 | 36947 ft | 459 kts | 90° |
| 2026-05-06 18:58 | 19.25010 | -91.02569 | 36947 ft | 459 kts | 90° |
| 2026-05-06 18:59 | 19.25106 | -90.95773 | 36947 ft | 459 kts | 90° |
| 2026-05-06 18:59 | 19.25202 | -90.89022 | 36946 ft | 459 kts | 90° |
| 2026-05-06 19:00 | 19.25300 | -90.82319 | 36945 ft | 459 kts | 90° |
| 2026-05-06 19:00 | 19.25408 | -90.75527 | 36947 ft | 458 kts | 90° |
| 2026-05-06 19:01 | 19.25514 | -90.68823 | 36945 ft | 459 kts | 90° |
| 2026-05-06 19:01 | 19.25599 | -90.62078 | 36944 ft | 458 kts | 90° |
| 2026-05-06 19:02 | 19.25676 | -90.55331 | 36938 ft | 459 kts | 90° |
| 2026-05-06 19:02 | 19.25757 | -90.48566 | 36942 ft | 460 kts | 90° |
| 2026-05-06 19:03 | 19.25844 | -90.41800 | 36949 ft | 459 kts | 90° |
| 2026-05-06 19:03 | 19.25931 | -90.35039 | 36952 ft | 459 kts | 90° |
| 2026-05-06 19:04 | 19.25927 | -90.28288 | 36955 ft | 459 kts | 92° |
| 2026-05-06 19:04 | 19.25748 | -90.21563 | 36955 ft | 459 kts | 92° |
| 2026-05-06 19:05 | 19.25555 | -90.14811 | 36956 ft | 459 kts | 92° |
| 2026-05-06 19:05 | 19.25395 | -90.08054 | 36955 ft | 459 kts | 92° |
| 2026-05-06 19:06 | 19.25252 | -90.01303 | 36954 ft | 459 kts | 92° |
| 2026-05-06 19:06 | 19.25112 | -89.94541 | 36954 ft | 459 kts | 92° |
| 2026-05-06 19:07 | 19.24956 | -89.87789 | 36959 ft | 459 kts | 92° |
| 2026-05-06 19:07 | 19.24797 | -89.81029 | 36962 ft | 459 kts | 92° |
| 2026-05-06 19:08 | 19.24634 | -89.74276 | 36965 ft | 459 kts | 92° |
| 2026-05-06 19:08 | 19.24477 | -89.67533 | 36964 ft | 459 kts | 92° |
| 2026-05-06 19:09 | 19.24314 | -89.60830 | 36967 ft | 458 kts | 92° |
| 2026-05-06 19:09 | 19.24221 | -89.54093 | 36975 ft | 458 kts | 86° |
| 2026-05-06 19:10 | 19.25504 | -89.47510 | 36976 ft | 458 kts | 73° |
| 2026-05-06 19:10 | 19.27320 | -89.41042 | 36978 ft | 458 kts | 74° |
| 2026-05-06 19:11 | 19.29112 | -89.34571 | 36981 ft | 458 kts | 74° |
| 2026-05-06 19:11 | 19.30898 | -89.28096 | 36984 ft | 458 kts | 74° |
| 2026-05-06 19:12 | 19.32675 | -89.21619 | 36984 ft | 458 kts | 74° |
| 2026-05-06 19:12 | 19.34467 | -89.15146 | 36988 ft | 458 kts | 74° |
| 2026-05-06 19:13 | 19.36252 | -89.08675 | 36989 ft | 457 kts | 74° |
| 2026-05-06 19:13 | 19.38026 | -89.02211 | 36991 ft | 458 kts | 74° |
| 2026-05-06 19:14 | 19.39785 | -88.95776 | 36992 ft | 458 kts | 74° |
| 2026-05-06 19:14 | 19.41567 | -88.89292 | 36994 ft | 458 kts | 74° |
| 2026-05-06 19:15 | 19.43343 | -88.82818 | 37001 ft | 458 kts | 74° |
| 2026-05-06 19:15 | 19.45118 | -88.76339 | 37005 ft | 458 kts | 74° |
| 2026-05-06 19:16 | 19.46888 | -88.69855 | 37007 ft | 457 kts | 74° |
| 2026-05-06 19:16 | 19.48650 | -88.63380 | 37008 ft | 457 kts | 74° |
| 2026-05-06 19:17 | 19.50417 | -88.56896 | 37006 ft | 457 kts | 74° |
| 2026-05-06 19:17 | 19.52173 | -88.50455 | 37007 ft | 457 kts | 74° |
| 2026-05-06 19:18 | 19.53931 | -88.43978 | 37009 ft | 457 kts | 74° |
| 2026-05-06 19:18 | 19.55682 | -88.37505 | 37014 ft | 457 kts | 74° |
| 2026-05-06 19:19 | 19.57436 | -88.31025 | 37019 ft | 457 kts | 74° |
| 2026-05-06 19:19 | 19.59189 | -88.24550 | 37023 ft | 457 kts | 74° |
| 2026-05-06 19:20 | 19.60940 | -88.18073 | 37024 ft | 457 kts | 74° |
| 2026-05-06 19:20 | 19.62685 | -88.11586 | 37024 ft | 457 kts | 74° |
| 2026-05-06 19:21 | 19.64411 | -88.05151 | 36905 ft | 457 kts | 74° |
| 2026-05-06 19:21 | 19.65282 | -88.01916 | 36657 ft | 455 kts | 74° |
| 2026-05-06 19:21 | 19.66150 | -87.98691 | 36408 ft | 455 kts | 74° |
| 2026-05-06 19:21 | 19.67017 | -87.95466 | 36159 ft | 456 kts | 74° |
| 2026-05-06 19:22 | 19.67886 | -87.92220 | 35911 ft | 458 kts | 74° |
| 2026-05-06 19:22 | 19.68757 | -87.88962 | 35459 ft | 460 kts | 74° |
| 2026-05-06 19:22 | 19.69638 | -87.85668 | 34597 ft | 466 kts | 74° |
| 2026-05-06 19:22 | 19.70526 | -87.82348 | 33720 ft | 471 kts | 74° |
| 2026-05-06 19:23 | 19.71422 | -87.78990 | 32767 ft | 476 kts | 74° |
| 2026-05-06 19:23 | 19.72327 | -87.75593 | 31760 ft | 481 kts | 74° |
| 2026-05-06 19:23 | 19.73245 | -87.72162 | 30809 ft | 485 kts | 74° |
| 2026-05-06 19:23 | 19.74170 | -87.68700 | 29692 ft | 491 kts | 75° |
| 2026-05-06 19:24 | 19.75103 | -87.65194 | 28632 ft | 494 kts | 75° |
| 2026-05-06 19:24 | 19.76040 | -87.61682 | 27570 ft | 496 kts | 75° |
| 2026-05-06 19:24 | 19.76977 | -87.58161 | 26579 ft | 495 kts | 75° |
| 2026-05-06 19:24 | 19.77907 | -87.54661 | 25576 ft | 492 kts | 75° |
| 2026-05-06 19:25 | 19.78830 | -87.51180 | 24899 ft | 483 kts | 74° |
| 2026-05-06 19:25 | 19.79719 | -87.47827 | 24763 ft | 462 kts | 74° |
| 2026-05-06 19:25 | 19.80569 | -87.44608 | 24628 ft | 443 kts | 74° |
| 2026-05-06 19:25 | 19.81540 | -87.41580 | 24511 ft | 426 kts | 66° |
| 2026-05-06 19:26 | 19.82968 | -87.38888 | 24341 ft | 411 kts | 56° |
| 2026-05-06 19:26 | 19.84637 | -87.36461 | 23935 ft | 404 kts | 54° |
| 2026-05-06 19:26 | 19.86288 | -87.34075 | 23503 ft | 398 kts | 54° |
| 2026-05-06 19:26 | 19.87911 | -87.31728 | 23298 ft | 390 kts | 54° |
| 2026-05-06 19:27 | 19.89497 | -87.29431 | 23211 ft | 391 kts | 54° |
| 2026-05-06 19:27 | 19.91127 | -87.27071 | 23057 ft | 390 kts | 54° |
| 2026-05-06 19:27 | 19.92708 | -87.24779 | 22901 ft | 389 kts | 54° |
| 2026-05-06 19:27 | 19.94306 | -87.22460 | 22744 ft | 388 kts | 54° |
| 2026-05-06 19:28 | 19.95904 | -87.20149 | 22589 ft | 386 kts | 54° |
| 2026-05-06 19:28 | 19.97492 | -87.17850 | 22437 ft | 385 kts | 54° |
| 2026-05-06 19:28 | 19.99073 | -87.15557 | 22279 ft | 384 kts | 54° |
| 2026-05-06 19:28 | 20.00648 | -87.13267 | 22121 ft | 383 kts | 54° |
| 2026-05-06 19:29 | 20.02217 | -87.10984 | 21964 ft | 383 kts | 54° |
| 2026-05-06 19:29 | 20.03789 | -87.08700 | 21811 ft | 382 kts | 54° |
| 2026-05-06 19:29 | 20.05353 | -87.06430 | 21660 ft | 381 kts | 54° |
| 2026-05-06 19:29 | 20.06917 | -87.04158 | 21494 ft | 379 kts | 54° |
| 2026-05-06 19:30 | 20.08469 | -87.01901 | 21351 ft | 378 kts | 54° |
| 2026-05-06 19:30 | 20.10023 | -86.99642 | 21188 ft | 377 kts | 54° |
| 2026-05-06 19:30 | 20.11565 | -86.97394 | 21039 ft | 376 kts | 54° |
| 2026-05-06 19:30 | 20.13106 | -86.95147 | 20882 ft | 375 kts | 54° |
| 2026-05-06 19:31 | 20.14641 | -86.92909 | 20739 ft | 374 kts | 54° |
| 2026-05-06 19:31 | 20.16172 | -86.90679 | 20595 ft | 373 kts | 54° |
| 2026-05-06 19:31 | 20.18709 | -86.86978 | 20338 ft | 371 kts | 54° |
| 2026-05-06 19:32 | 20.20720 | -86.84043 | 20133 ft | 370 kts | 54° |
| 2026-05-06 19:32 | 20.22234 | -86.81834 | 19968 ft | 369 kts | 54° |
| 2026-05-06 19:32 | 20.23756 | -86.79626 | 19327 ft | 371 kts | 54° |
| 2026-05-06 19:32 | 20.25276 | -86.77434 | 18929 ft | 364 kts | 54° |
| 2026-05-06 19:33 | 20.26290 | -86.75976 | 18564 ft | 363 kts | 53° |
| 2026-05-06 19:33 | 20.28268 | -86.73129 | 17876 ft | 358 kts | 54° |
| 2026-05-06 19:33 | 20.29246 | -86.71719 | 17537 ft | 356 kts | 54° |
| 2026-05-06 19:33 | 20.30708 | -86.69605 | 17013 ft | 354 kts | 54° |
| 2026-05-06 19:34 | 20.32161 | -86.67503 | 16486 ft | 351 kts | 54° |
| 2026-05-06 19:34 | 20.33602 | -86.65413 | 15959 ft | 349 kts | 54° |
| 2026-05-06 19:34 | 20.35014 | -86.63363 | 15786 ft | 336 kts | 54° |
| 2026-05-06 19:34 | 20.36411 | -86.61426 | 15658 ft | 324 kts | 47° |
| 2026-05-06 19:35 | 20.38180 | -86.60009 | 15493 ft | 316 kts | 27° |
| 2026-05-06 19:35 | 20.40274 | -86.59345 | 15182 ft | 316 kts | 8° |
| 2026-05-06 19:35 | 20.42471 | -86.59511 | 14813 ft | 319 kts | 349° |
| 2026-05-06 19:35 | 20.44622 | -86.60124 | 14404 ft | 320 kts | 348° |
| 2026-05-06 19:36 | 20.46770 | -86.60750 | 14044 ft | 318 kts | 347° |
| 2026-05-06 19:36 | 20.48894 | -86.61370 | 13747 ft | 315 kts | 347° |
| 2026-05-06 19:36 | 20.51002 | -86.61983 | 13469 ft | 312 kts | 348° |
| 2026-05-06 19:36 | 20.53089 | -86.62585 | 13200 ft | 310 kts | 348° |
| 2026-05-06 19:37 | 20.55174 | -86.63185 | 12932 ft | 309 kts | 348° |
| 2026-05-06 19:37 | 20.57251 | -86.63782 | 12660 ft | 308 kts | 348° |
| 2026-05-06 19:37 | 20.59318 | -86.64374 | 12402 ft | 307 kts | 348° |
| 2026-05-06 19:37 | 20.61377 | -86.64964 | 12138 ft | 306 kts | 348° |
| 2026-05-06 19:38 | 20.63435 | -86.65554 | 11824 ft | 306 kts | 347° |
| 2026-05-06 19:38 | 20.65487 | -86.66143 | 11444 ft | 305 kts | 347° |
| 2026-05-06 19:38 | 20.67537 | -86.66730 | 11083 ft | 305 kts | 347° |
| 2026-05-06 19:38 | 20.69557 | -86.67309 | 10715 ft | 304 kts | 347° |
| 2026-05-06 19:39 | 20.71599 | -86.67895 | 10293 ft | 305 kts | 347° |
| 2026-05-06 19:39 | 20.73639 | -86.68481 | 9939 ft | 305 kts | 347° |
| 2026-05-06 19:39 | 20.75690 | -86.69072 | 9573 ft | 305 kts | 347° |
| 2026-05-06 19:39 | 20.77728 | -86.69659 | 9240 ft | 304 kts | 346° |
| 2026-05-06 19:40 | 20.79736 | -86.70240 | 9117 ft | 295 kts | 346° |
| 2026-05-06 19:40 | 20.81655 | -86.70925 | 8991 ft | 288 kts | 334° |
| 2026-05-06 19:40 | 20.83241 | -86.72147 | 8869 ft | 280 kts | 314° |
| 2026-05-06 19:40 | 20.84411 | -86.73784 | 8626 ft | 278 kts | 303° |
| 2026-05-06 19:41 | 20.85483 | -86.75488 | 8387 ft | 275 kts | 303° |
| 2026-05-06 19:41 | 20.86548 | -86.77193 | 8073 ft | 275 kts | 303° |
| 2026-05-06 19:41 | 20.87608 | -86.78894 | 7802 ft | 273 kts | 303° |
| 2026-05-06 19:41 | 20.88643 | -86.80550 | 7546 ft | 270 kts | 303° |
| 2026-05-06 19:42 | 20.89694 | -86.82230 | 7287 ft | 268 kts | 303° |
| 2026-05-06 19:42 | 20.90728 | -86.83886 | 7033 ft | 266 kts | 303° |
| 2026-05-06 19:42 | 20.91741 | -86.85504 | 6783 ft | 265 kts | 303° |
| 2026-05-06 19:42 | 20.92766 | -86.87140 | 6539 ft | 264 kts | 303° |
| 2026-05-06 19:43 | 20.93786 | -86.88768 | 6287 ft | 263 kts | 303° |
| 2026-05-06 19:43 | 20.94801 | -86.90393 | 6042 ft | 263 kts | 303° |
| 2026-05-06 19:43 | 20.95816 | -86.92014 | 5803 ft | 262 kts | 303° |
| 2026-05-06 19:43 | 20.96827 | -86.93629 | 5556 ft | 261 kts | 303° |
| 2026-05-06 19:44 | 20.97833 | -86.95240 | 5305 ft | 260 kts | 303° |
| 2026-05-06 19:44 | 20.98834 | -86.96848 | 5051 ft | 259 kts | 303° |
| 2026-05-06 19:44 | 20.99836 | -86.98454 | 4826 ft | 259 kts | 303° |
| 2026-05-06 19:44 | 21.00841 | -87.00060 | 4580 ft | 259 kts | 303° |
| 2026-05-06 19:45 | 21.01840 | -87.01651 | 4333 ft | 258 kts | 303° |
| 2026-05-06 19:45 | 21.02844 | -87.03247 | 4091 ft | 257 kts | 303° |
| 2026-05-06 19:45 | 21.03841 | -87.04833 | 3845 ft | 257 kts | 303° |
| 2026-05-06 19:45 | 21.04834 | -87.06416 | 3607 ft | 256 kts | 303° |
| 2026-05-06 19:46 | 21.05824 | -87.07998 | 3367 ft | 255 kts | 303° |
| 2026-05-06 19:46 | 21.06809 | -87.09580 | 3155 ft | 253 kts | 303° |
| 2026-05-06 19:46 | 21.07772 | -87.11121 | 3032 ft | 244 kts | 303° |
| 2026-05-06 19:46 | 21.08695 | -87.12596 | 2978 ft | 240 kts | 303° |
| 2026-05-06 19:47 | 21.09623 | -87.14085 | 2981 ft | 241 kts | 303° |
| 2026-05-06 19:47 | 21.10546 | -87.15573 | 2983 ft | 240 kts | 303° |
| 2026-05-06 19:47 | 21.11467 | -87.17062 | 2989 ft | 240 kts | 303° |
| 2026-05-06 19:47 | 21.12393 | -87.18549 | 2987 ft | 240 kts | 306° |
| 2026-05-06 19:48 | 21.13646 | -87.19681 | 2981 ft | 236 kts | 342° |
| 2026-05-06 19:48 | 21.15191 | -87.19857 | 2981 ft | 217 kts | 18° |
| 2026-05-06 19:48 | 21.16498 | -87.19213 | 2988 ft | 204 kts | 39° |
| 2026-05-06 19:48 | 21.17682 | -87.18370 | 2984 ft | 204 kts | 39° |
| 2026-05-06 19:49 | 21.18865 | -87.17528 | 2987 ft | 204 kts | 38° |
| 2026-05-06 19:49 | 21.20053 | -87.16686 | 2983 ft | 204 kts | 39° |
| 2026-05-06 19:49 | 21.21063 | -87.15680 | 2975 ft | 195 kts | 66° |
| 2026-05-06 19:49 | 21.21401 | -87.14323 | 2979 ft | 187 kts | 97° |
| 2026-05-06 19:50 | 21.21017 | -87.13022 | 2983 ft | 183 kts | 124° |
| 2026-05-06 19:50 | 21.20301 | -87.11887 | 2986 ft | 184 kts | 124° |
| 2026-05-06 19:50 | 21.19611 | -87.10785 | 2998 ft | 169 kts | 124° |
| 2026-05-06 19:50 | 21.18986 | -87.09785 | 2975 ft | 154 kts | 124° |
| 2026-05-06 19:51 | 21.18422 | -87.08881 | 2974 ft | 143 kts | 124° |
| 2026-05-06 19:51 | 21.17887 | -87.08022 | 3006 ft | 136 kts | 124° |
| 2026-05-06 19:51 | 21.17367 | -87.07186 | 2995 ft | 134 kts | 124° |
| 2026-05-06 19:51 | 21.16852 | -87.06361 | 2992 ft | 133 kts | 124° |
| 2026-05-06 19:52 | 21.16336 | -87.05534 | 2992 ft | 134 kts | 124° |
| 2026-05-06 19:52 | 21.15822 | -87.04711 | 2988 ft | 133 kts | 124° |
| 2026-05-06 19:52 | 21.15305 | -87.03881 | 2990 ft | 133 kts | 124° |
| 2026-05-06 19:52 | 21.14790 | -87.03057 | 2993 ft | 133 kts | 124° |
| 2026-05-06 19:53 | 21.14276 | -87.02233 | 2983 ft | 133 kts | 124° |
| 2026-05-06 19:53 | 21.13761 | -87.01408 | 2881 ft | 133 kts | 124° |
| 2026-05-06 19:53 | 21.13242 | -87.00578 | 2740 ft | 133 kts | 124° |
| 2026-05-06 19:53 | 21.12729 | -86.99754 | 2569 ft | 133 kts | 124° |
| 2026-05-06 19:54 | 21.12217 | -86.98933 | 2405 ft | 132 kts | 124° |
| 2026-05-06 19:54 | 21.11707 | -86.98117 | 2232 ft | 132 kts | 125° |
| 2026-05-06 19:54 | 21.11196 | -86.97296 | 2060 ft | 132 kts | 125° |
| 2026-05-06 19:54 | 21.10685 | -86.96479 | 1884 ft | 132 kts | 125° |
| 2026-05-06 19:55 | 21.10180 | -86.95671 | 1716 ft | 132 kts | 125° |
| 2026-05-06 19:55 | 21.09666 | -86.94850 | 1537 ft | 133 kts | 125° |
| 2026-05-06 19:55 | 21.09150 | -86.94024 | 1356 ft | 134 kts | 126° |
| 2026-05-06 19:55 | 21.08632 | -86.93193 | 1172 ft | 135 kts | 126° |
| 2026-05-06 19:56 | 21.08110 | -86.92359 | 999 ft | 135 kts | 126° |
| 2026-05-06 19:56 | 21.07589 | -86.91524 | 819 ft | 135 kts | 126° |
| 2026-05-06 19:56 | 21.07068 | -86.90691 | 641 ft | 135 kts | 125° |
| 2026-05-06 19:56 | 21.06546 | -86.89857 | 461 ft | 135 kts | 125° |
| 2026-05-06 19:57 | 21.06026 | -86.89024 | 291 ft | 135 kts | 125° |
| 2026-05-06 19:57 | 21.05501 | -86.88186 | 111 ft | 136 kts | 125° |
| 2026-05-06 19:57 | 21.04999 | -86.87392 | 35 ft | 136 kts | 123° |
| 2026-05-06 19:57 | 21.04558 | -86.86688 | 31 ft | 66 kts | 124° |
| 2026-05-06 19:58 | 21.04362 | -86.86426 | 30 ft | 41 kts | 146° |
| 2026-05-06 19:58 | 21.04178 | -86.86328 | 39 ft | 21 kts | 154° |
| 2026-05-06 19:58 | 21.04073 | -86.86238 | 44 ft | 18 kts | 139° |
| 2026-05-06 19:58 | 21.03967 | -86.86269 | 47 ft | 15 kts | 214° |
| 2026-05-06 19:59 | 21.03879 | -86.86333 | 51 ft | 16 kts | 214° |
| 2026-05-06 19:59 | 21.03770 | -86.86412 | 44 ft | 22 kts | 214° |
| 2026-05-06 19:59 | 21.03619 | -86.86523 | 30 ft | 30 kts | 212° |
| 2026-05-06 19:59 | 21.03442 | -86.86638 | 29 ft | 28 kts | 213° |
| 2026-05-06 20:00 | 21.03288 | -86.86752 | 30 ft | 14 kts | 226° |
| 2026-05-06 20:00 | 21.03306 | -86.86825 | 30 ft | 12 kts | 301° |
| 2026-05-06 20:00 | 21.03355 | -86.86904 | 30 ft | 14 kts | 305° |
| 2026-05-06 20:00 | 21.03413 | -86.86998 | 30 ft | 16 kts | 302° |
| 2026-05-06 20:01 | 21.03478 | -86.87106 | 31 ft | 18 kts | 303° |
| 2026-05-06 20:01 | 21.03553 | -86.87225 | 31 ft | 20 kts | 304° |
| 2026-05-06 20:01 | 21.03636 | -86.87354 | 31 ft | 22 kts | 304° |
| 2026-05-06 20:01 | 21.03727 | -86.87498 | 31 ft | 24 kts | 304° |
| 2026-05-06 20:02 | 21.03819 | -86.87636 | 30 ft | 4 kts | 335° |
| 2026-05-06 20:02 | 21.03866 | -86.87633 | 30 ft | 9 kts | 2° |
| 2026-05-06 20:02 | 21.03881 | -86.87633 | 30 ft | 3 kts | 360° |
| 2026-05-06 20:02 | 21.03895 | -86.87633 | 30 ft | 0 kts | 359° |
| 2026-05-06 20:03 | 21.03897 | -86.87633 | 30 ft | 0 kts | 359° |